Main page
Satellite images 15-day forecastsClimateMarine weather Cyclones Lightning AirportsFAQ Newsletter About
Weather : Europe Africa North America South America Asia Australia-Oceania Others
Languages Contact

Bordeaux, France

Merignac

latitude: 44-50N, longitude: 000-42W, elevation: 49 m


METAR: LFBD 030200Z AUTO 05007KT 9999 NSC 16/12 Q1015
short-TAF: out of date (51066 hours)
long-TAF: LFBD 021700Z 0218/0324 05008KT CAVOK

Time: 04:04 (02:04 UTC)

Current weather observation

The report was made 4 minutes ago, at 02:00 UTC  
Wind 07 kt from the Northeast
Temperature 16°C
Humidity 77%
Pressure 1015 hPa
Visibility 10 km or more

Change units

Forecast

The report was made 8 hours and 49 minutes ago, at 17:15 UTC  
Forecast valid from 02 at 18 UTC to 03 at 24 UTC
Wind 08 kt from the Northeast
Visibility 10 km or more
no clouds below 1500 m and no cumulonimbus
The information on this site is subject to a disclaimer
Weather : Europe Africa North America South America Asia Australia-Oceania Others
Satellite images 15-day forecastsClimateMarine weather Cyclones Lightning AirportsFAQ Languages Contact Newsletter About